sensor_id;sensor_type;location;lat;lon;timestamp;P1;durP1;ratioP1;P2;durP2;ratioP2
8694;SDS011;65580;49.446;6.854;2023-03-30T00:01:10;21.25;;;7.03;;
8694;SDS011;65580;49.446;6.854;2023-03-30T00:05:17;12.32;;;6.15;;
8694;SDS011;65580;49.446;6.854;2023-03-30T00:09:19;18.27;;;6.35;;
8694;SDS011;65580;49.446;6.854;2023-03-30T00:13:23;15.60;;;4.95;;
8694;SDS011;65580;49.446;6.854;2023-03-30T00:17:26;12.00;;;5.20;;
8694;SDS011;65580;49.446;6.854;2023-03-30T00:21:30;19.20;;;8.00;;
8694;SDS011;65580;49.446;6.854;2023-03-30T00:25:33;13.52;;;6.68;;
8694;SDS011;65580;49.446;6.854;2023-03-30T00:29:36;17.80;;;7.65;;
8694;SDS011;65580;49.446;6.854;2023-03-30T00:33:39;14.65;;;6.88;;
8694;SDS011;65580;49.446;6.854;2023-03-30T00:37:48;22.90;;;8.77;;
8694;SDS011;65580;49.446;6.854;2023-03-30T00:41:51;14.77;;;6.90;;
8694;SDS011;65580;49.446;6.854;2023-03-30T00:45:54;16.30;;;7.38;;
8694;SDS011;65580;49.446;6.854;2023-03-30T00:49:58;29.08;;;8.13;;
8694;SDS011;65580;49.446;6.854;2023-03-30T00:54:03;15.50;;;6.50;;
8694;SDS011;65580;49.446;6.854;2023-03-30T00:58:08;12.40;;;5.82;;
8694;SDS011;65580;49.446;6.854;2023-03-30T01:02:11;14.52;;;6.03;;
8694;SDS011;65580;49.446;6.854;2023-03-30T01:06:15;22.90;;;7.95;;
8694;SDS011;65580;49.446;6.854;2023-03-30T01:10:23;20.45;;;8.30;;
8694;SDS011;65580;49.446;6.854;2023-03-30T01:14:26;13.35;;;6.07;;
8694;SDS011;65580;49.446;6.854;2023-03-30T01:18:31;12.90;;;5.70;;
8694;SDS011;65580;49.446;6.854;2023-03-30T01:22:46;10.80;;;5.43;;
8694;SDS011;65580;49.446;6.854;2023-03-30T01:27:05;13.85;;;4.40;;
8694;SDS011;65580;49.446;6.854;2023-03-30T01:31:33;14.07;;;6.20;;
8694;SDS011;65580;49.446;6.854;2023-03-30T01:40:16;21.05;;;8.05;;
8694;SDS011;65580;49.446;6.854;2023-03-30T01:44:24;17.58;;;8.55;;
8694;SDS011;65580;49.446;6.854;2023-03-30T01:48:33;14.57;;;6.10;;
8694;SDS011;65580;49.446;6.854;2023-03-30T01:52:47;13.93;;;5.93;;
8694;SDS011;65580;49.446;6.854;2023-03-30T01:56:56;16.10;;;7.75;;
8694;SDS011;65580;49.446;6.854;2023-03-30T02:01:01;14.70;;;6.93;;
8694;SDS011;65580;49.446;6.854;2023-03-30T02:05:05;11.93;;;5.53;;
8694;SDS011;65580;49.446;6.854;2023-03-30T02:09:11;21.85;;;6.00;;
8694;SDS011;65580;49.446;6.854;2023-03-30T02:13:17;16.45;;;6.22;;
8694;SDS011;65580;49.446;6.854;2023-03-30T02:17:21;17.45;;;7.10;;
8694;SDS011;65580;49.446;6.854;2023-03-30T02:21:25;20.42;;;7.68;;
8694;SDS011;65580;49.446;6.854;2023-03-30T02:25:28;21.13;;;5.47;;
8694;SDS011;65580;49.446;6.854;2023-03-30T02:29:32;13.98;;;5.68;;
8694;SDS011;65580;49.446;6.854;2023-03-30T02:33:39;12.52;;;5.60;;
8694;SDS011;65580;49.446;6.854;2023-03-30T02:37:56;9.75;;;5.40;;
8694;SDS011;65580;49.446;6.854;2023-03-30T02:42:23;29.67;;;11.93;;
8694;SDS011;65580;49.446;6.854;2023-03-30T02:46:39;24.95;;;12.15;;
8694;SDS011;65580;49.446;6.854;2023-03-30T02:50:53;25.15;;;10.48;;
8694;SDS011;65580;49.446;6.854;2023-03-30T02:55:02;27.83;;;13.07;;
8694;SDS011;65580;49.446;6.854;2023-03-30T02:59:12;30.77;;;12.98;;
8694;SDS011;65580;49.446;6.854;2023-03-30T03:03:23;16.55;;;8.70;;
8694;SDS011;65580;49.446;6.854;2023-03-30T03:07:29;17.00;;;8.13;;
8694;SDS011;65580;49.446;6.854;2023-03-30T03:11:34;16.38;;;8.63;;
8694;SDS011;65580;49.446;6.854;2023-03-30T03:15:36;14.10;;;6.55;;
8694;SDS011;65580;49.446;6.854;2023-03-30T03:19:41;17.27;;;7.93;;
8694;SDS011;65580;49.446;6.854;2023-03-30T03:23:44;14.98;;;6.13;;
8694;SDS011;65580;49.446;6.854;2023-03-30T03:27:48;13.05;;;5.60;;
8694;SDS011;65580;49.446;6.854;2023-03-30T03:31:51;15.50;;;7.70;;
8694;SDS011;65580;49.446;6.854;2023-03-30T03:35:55;12.80;;;6.15;;
8694;SDS011;65580;49.446;6.854;2023-03-30T03:40:00;12.95;;;6.10;;
8694;SDS011;65580;49.446;6.854;2023-03-30T03:44:03;13.10;;;5.45;;
8694;SDS011;65580;49.446;6.854;2023-03-30T03:48:06;9.50;;;4.60;;
8694;SDS011;65580;49.446;6.854;2023-03-30T03:56:14;10.63;;;4.50;;
8694;SDS011;65580;49.446;6.854;2023-03-30T04:00:17;15.07;;;5.15;;
8694;SDS011;65580;49.446;6.854;2023-03-30T04:04:21;10.63;;;5.35;;
8694;SDS011;65580;49.446;6.854;2023-03-30T04:08:25;13.05;;;4.13;;
8694;SDS011;65580;49.446;6.854;2023-03-30T04:12:28;11.95;;;4.80;;
8694;SDS011;65580;49.446;6.854;2023-03-30T04:16:31;13.48;;;4.93;;
8694;SDS011;65580;49.446;6.854;2023-03-30T04:20:34;13.52;;;5.93;;
8694;SDS011;65580;49.446;6.854;2023-03-30T04:24:39;13.73;;;5.75;;
8694;SDS011;65580;49.446;6.854;2023-03-30T04:28:42;21.83;;;8.15;;
8694;SDS011;65580;49.446;6.854;2023-03-30T04:32:47;26.98;;;9.38;;
8694;SDS011;65580;49.446;6.854;2023-03-30T04:37:02;19.05;;;7.15;;
8694;SDS011;65580;49.446;6.854;2023-03-30T04:41:08;15.40;;;5.45;;
8694;SDS011;65580;49.446;6.854;2023-03-30T04:45:14;18.13;;;7.00;;
8694;SDS011;65580;49.446;6.854;2023-03-30T04:49:18;19.98;;;6.15;;
8694;SDS011;65580;49.446;6.854;2023-03-30T04:53:21;17.05;;;6.65;;
8694;SDS011;65580;49.446;6.854;2023-03-30T04:57:25;15.05;;;6.15;;
8694;SDS011;65580;49.446;6.854;2023-03-30T05:01:28;15.55;;;6.15;;
8694;SDS011;65580;49.446;6.854;2023-03-30T05:05:32;27.55;;;6.18;;
8694;SDS011;65580;49.446;6.854;2023-03-30T05:09:35;20.33;;;4.63;;
8694;SDS011;65580;49.446;6.854;2023-03-30T05:13:40;11.65;;;4.78;;
8694;SDS011;65580;49.446;6.854;2023-03-30T05:17:43;18.52;;;4.68;;
8694;SDS011;65580;49.446;6.854;2023-03-30T05:21:45;16.02;;;5.05;;
8694;SDS011;65580;49.446;6.854;2023-03-30T05:25:48;11.23;;;4.53;;
8694;SDS011;65580;49.446;6.854;2023-03-30T05:29:53;192.40;;;14.63;;
8694;SDS011;65580;49.446;6.854;2023-03-30T05:33:56;13.57;;;4.47;;
8694;SDS011;65580;49.446;6.854;2023-03-30T05:37:59;16.35;;;5.05;;
8694;SDS011;65580;49.446;6.854;2023-03-30T05:42:02;13.57;;;4.18;;
8694;SDS011;65580;49.446;6.854;2023-03-30T05:46:07;18.95;;;5.45;;
8694;SDS011;65580;49.446;6.854;2023-03-30T05:50:10;14.48;;;5.45;;
8694;SDS011;65580;49.446;6.854;2023-03-30T05:54:13;14.25;;;4.25;;
8694;SDS011;65580;49.446;6.854;2023-03-30T05:58:16;10.52;;;4.38;;
8694;SDS011;65580;49.446;6.854;2023-03-30T06:02:22;11.77;;;5.18;;
8694;SDS011;65580;49.446;6.854;2023-03-30T06:06:25;11.18;;;4.82;;
8694;SDS011;65580;49.446;6.854;2023-03-30T06:10:29;8.10;;;3.30;;
8694;SDS011;65580;49.446;6.854;2023-03-30T06:14:32;25.33;;;23.02;;
8694;SDS011;65580;49.446;6.854;2023-03-30T06:18:36;13.38;;;3.60;;
8694;SDS011;65580;49.446;6.854;2023-03-30T06:22:40;16.02;;;5.25;;
8694;SDS011;65580;49.446;6.854;2023-03-30T06:26:43;15.68;;;5.22;;
8694;SDS011;65580;49.446;6.854;2023-03-30T06:30:46;26.70;;;9.30;;
8694;SDS011;65580;49.446;6.854;2023-03-30T06:34:51;13.45;;;4.30;;
8694;SDS011;65580;49.446;6.854;2023-03-30T06:38:54;19.45;;;6.15;;
8694;SDS011;65580;49.446;6.854;2023-03-30T06:42:57;11.10;;;4.45;;
8694;SDS011;65580;49.446;6.854;2023-03-30T06:51:07;16.08;;;5.50;;
8694;SDS011;65580;49.446;6.854;2023-03-30T06:55:10;9.40;;;4.63;;
8694;SDS011;65580;49.446;6.854;2023-03-30T07:03:17;9.50;;;4.40;;
8694;SDS011;65580;49.446;6.854;2023-03-30T07:07:21;13.10;;;4.45;;
8694;SDS011;65580;49.446;6.854;2023-03-30T07:11:24;9.07;;;4.25;;
8694;SDS011;65580;49.446;6.854;2023-03-30T07:15:28;12.45;;;4.70;;
8694;SDS011;65580;49.446;6.854;2023-03-30T07:19:31;7.13;;;3.90;;
8694;SDS011;65580;49.446;6.854;2023-03-30T07:23:36;9.95;;;4.15;;
8694;SDS011;65580;49.446;6.854;2023-03-30T07:27:39;10.57;;;3.88;;
8694;SDS011;65580;49.446;6.854;2023-03-30T07:31:42;8.38;;;3.95;;
8694;SDS011;65580;49.446;6.854;2023-03-30T07:35:45;11.73;;;3.67;;
8694;SDS011;65580;49.446;6.854;2023-03-30T07:39:51;10.45;;;4.13;;
8694;SDS011;65580;49.446;6.854;2023-03-30T07:43:54;10.38;;;3.70;;
8694;SDS011;65580;49.446;6.854;2023-03-30T07:47:58;8.55;;;3.30;;
8694;SDS011;65580;49.446;6.854;2023-03-30T07:52:01;9.35;;;2.88;;
8694;SDS011;65580;49.446;6.854;2023-03-30T07:56:05;9.18;;;2.80;;
8694;SDS011;65580;49.446;6.854;2023-03-30T08:00:09;4.65;;;2.50;;
8694;SDS011;65580;49.446;6.854;2023-03-30T08:04:14;9.63;;;3.00;;
8694;SDS011;65580;49.446;6.854;2023-03-30T08:12:22;9.02;;;2.92;;
8694;SDS011;65580;49.446;6.854;2023-03-30T08:16:26;7.78;;;2.70;;
8694;SDS011;65580;49.446;6.854;2023-03-30T08:20:29;7.85;;;2.90;;
8694;SDS011;65580;49.446;6.854;2023-03-30T08:24:32;8.90;;;3.50;;
8694;SDS011;65580;49.446;6.854;2023-03-30T08:28:37;9.38;;;2.85;;
8694;SDS011;65580;49.446;6.854;2023-03-30T08:32:40;7.78;;;2.72;;
8694;SDS011;65580;49.446;6.854;2023-03-30T08:36:42;6.75;;;2.70;;
8694;SDS011;65580;49.446;6.854;2023-03-30T08:40:47;9.13;;;2.88;;
8694;SDS011;65580;49.446;6.854;2023-03-30T08:44:52;6.53;;;2.60;;
8694;SDS011;65580;49.446;6.854;2023-03-30T08:48:57;7.43;;;2.53;;
8694;SDS011;65580;49.446;6.854;2023-03-30T08:53:02;6.68;;;2.30;;
8694;SDS011;65580;49.446;6.854;2023-03-30T08:57:07;8.48;;;2.45;;
8694;SDS011;65580;49.446;6.854;2023-03-30T09:01:17;4.90;;;2.25;;
8694;SDS011;65580;49.446;6.854;2023-03-30T09:05:21;3.70;;;2.10;;
8694;SDS011;65580;49.446;6.854;2023-03-30T09:09:29;8.05;;;2.70;;
8694;SDS011;65580;49.446;6.854;2023-03-30T09:13:33;7.28;;;2.15;;
8694;SDS011;65580;49.446;6.854;2023-03-30T09:17:40;8.23;;;2.03;;
8694;SDS011;65580;49.446;6.854;2023-03-30T09:21:45;6.10;;;2.53;;
8694;SDS011;65580;49.446;6.854;2023-03-30T09:25:48;7.90;;;2.30;;
8694;SDS011;65580;49.446;6.854;2023-03-30T09:29:53;5.25;;;2.08;;
8694;SDS011;65580;49.446;6.854;2023-03-30T09:34:01;4.85;;;1.67;;
8694;SDS011;65580;49.446;6.854;2023-03-30T09:38:10;9.32;;;1.98;;
8694;SDS011;65580;49.446;6.854;2023-03-30T09:42:17;6.50;;;1.70;;
8694;SDS011;65580;49.446;6.854;2023-03-30T09:46:23;6.88;;;1.70;;
8694;SDS011;65580;49.446;6.854;2023-03-30T09:50:27;6.57;;;2.00;;
8694;SDS011;65580;49.446;6.854;2023-03-30T09:54:34;6.25;;;1.80;;
8694;SDS011;65580;49.446;6.854;2023-03-30T09:58:38;5.07;;;2.03;;
8694;SDS011;65580;49.446;6.854;2023-03-30T10:02:42;8.55;;;2.15;;
8694;SDS011;65580;49.446;6.854;2023-03-30T10:06:58;5.45;;;2.10;;
8694;SDS011;65580;49.446;6.854;2023-03-30T10:11:18;5.88;;;2.10;;
8694;SDS011;65580;49.446;6.854;2023-03-30T10:15:22;5.60;;;1.70;;
8694;SDS011;65580;49.446;6.854;2023-03-30T10:19:31;4.38;;;1.70;;
8694;SDS011;65580;49.446;6.854;2023-03-30T10:23:41;6.72;;;1.48;;
8694;SDS011;65580;49.446;6.854;2023-03-30T10:27:47;8.38;;;1.83;;
8694;SDS011;65580;49.446;6.854;2023-03-30T10:31:55;8.00;;;1.85;;
8694;SDS011;65580;49.446;6.854;2023-03-30T10:36:00;6.38;;;1.48;;
8694;SDS011;65580;49.446;6.854;2023-03-30T10:40:09;5.72;;;1.52;;
8694;SDS011;65580;49.446;6.854;2023-03-30T10:44:18;6.28;;;1.55;;
8694;SDS011;65580;49.446;6.854;2023-03-30T10:48:28;5.97;;;1.48;;
8694;SDS011;65580;49.446;6.854;2023-03-30T10:52:39;3.63;;;1.05;;
8694;SDS011;65580;49.446;6.854;2023-03-30T10:57:01;8.98;;;1.40;;
8694;SDS011;65580;49.446;6.854;2023-03-30T11:01:10;6.85;;;1.75;;
8694;SDS011;65580;49.446;6.854;2023-03-30T11:05:18;3.60;;;1.20;;
8694;SDS011;65580;49.446;6.854;2023-03-30T11:09:23;6.45;;;1.38;;
8694;SDS011;65580;49.446;6.854;2023-03-30T11:13:31;5.72;;;1.73;;
8694;SDS011;65580;49.446;6.854;2023-03-30T11:17:37;5.25;;;1.35;;
8694;SDS011;65580;49.446;6.854;2023-03-30T11:21:48;4.38;;;0.98;;
8694;SDS011;65580;49.446;6.854;2023-03-30T11:25:58;9.57;;;1.50;;
8694;SDS011;65580;49.446;6.854;2023-03-30T11:30:06;4.00;;;0.90;;
8694;SDS011;65580;49.446;6.854;2023-03-30T11:34:14;4.78;;;1.20;;
8694;SDS011;65580;49.446;6.854;2023-03-30T11:38:22;3.38;;;1.20;;
8694;SDS011;65580;49.446;6.854;2023-03-30T11:42:28;6.95;;;1.58;;
8694;SDS011;65580;49.446;6.854;2023-03-30T11:46:35;4.93;;;1.13;;
8694;SDS011;65580;49.446;6.854;2023-03-30T11:50:48;4.00;;;1.00;;
8694;SDS011;65580;49.446;6.854;2023-03-30T11:55:06;5.07;;;1.10;;
8694;SDS011;65580;49.446;6.854;2023-03-30T11:59:21;4.75;;;1.20;;
8694;SDS011;65580;49.446;6.854;2023-03-30T12:03:35;5.97;;;1.33;;
8694;SDS011;65580;49.446;6.854;2023-03-30T12:07:42;4.93;;;1.48;;
8694;SDS011;65580;49.446;6.854;2023-03-30T12:11:56;7.07;;;1.20;;
8694;SDS011;65580;49.446;6.854;2023-03-30T12:16:05;3.92;;;1.30;;
8694;SDS011;65580;49.446;6.854;2023-03-30T12:20:14;9.90;;;1.80;;
8694;SDS011;65580;49.446;6.854;2023-03-30T12:24:24;6.80;;;1.30;;
8694;SDS011;65580;49.446;6.854;2023-03-30T12:28:42;7.03;;;1.40;;
8694;SDS011;65580;49.446;6.854;2023-03-30T12:33:09;5.10;;;1.30;;
8694;SDS011;65580;49.446;6.854;2023-03-30T12:37:16;5.63;;;1.55;;
8694;SDS011;65580;49.446;6.854;2023-03-30T12:41:21;5.35;;;1.88;;
8694;SDS011;65580;49.446;6.854;2023-03-30T12:45:29;5.35;;;1.50;;
8694;SDS011;65580;49.446;6.854;2023-03-30T12:49:37;5.75;;;1.40;;
8694;SDS011;65580;49.446;6.854;2023-03-30T12:53:50;8.07;;;1.77;;
8694;SDS011;65580;49.446;6.854;2023-03-30T13:02:30;4.68;;;1.02;;
8694;SDS011;65580;49.446;6.854;2023-03-30T13:06:45;4.72;;;1.00;;
8694;SDS011;65580;49.446;6.854;2023-03-30T13:10:51;8.05;;;1.27;;
8694;SDS011;65580;49.446;6.854;2023-03-30T13:19:43;6.60;;;1.10;;
8694;SDS011;65580;49.446;6.854;2023-03-30T13:23:59;4.00;;;1.10;;
8694;SDS011;65580;49.446;6.854;2023-03-30T13:28:36;8.65;;;1.50;;
8694;SDS011;65580;49.446;6.854;2023-03-30T13:32:52;5.05;;;1.20;;
8694;SDS011;65580;49.446;6.854;2023-03-30T13:37:03;3.72;;;1.00;;
8694;SDS011;65580;49.446;6.854;2023-03-30T13:41:16;5.18;;;1.38;;
8694;SDS011;65580;49.446;6.854;2023-03-30T13:45:42;4.00;;;1.00;;
8694;SDS011;65580;49.446;6.854;2023-03-30T13:49:49;4.28;;;1.23;;
8694;SDS011;65580;49.446;6.854;2023-03-30T13:53:57;2.05;;;0.63;;
8694;SDS011;65580;49.446;6.854;2023-03-30T13:58:01;7.18;;;1.55;;
8694;SDS011;65580;49.446;6.854;2023-03-30T14:02:11;3.92;;;1.00;;
8694;SDS011;65580;49.446;6.854;2023-03-30T14:06:16;3.60;;;1.00;;
8694;SDS011;65580;49.446;6.854;2023-03-30T14:10:21;5.78;;;1.10;;
8694;SDS011;65580;49.446;6.854;2023-03-30T14:14:25;6.22;;;1.25;;
8694;SDS011;65580;49.446;6.854;2023-03-30T14:18:36;5.30;;;1.20;;
8694;SDS011;65580;49.446;6.854;2023-03-30T14:22:40;5.63;;;1.67;;
8694;SDS011;65580;49.446;6.854;2023-03-30T14:26:46;5.13;;;1.20;;
8694;SDS011;65580;49.446;6.854;2023-03-30T14:30:51;3.67;;;0.95;;
8694;SDS011;65580;49.446;6.854;2023-03-30T14:34:56;7.50;;;1.05;;
8694;SDS011;65580;49.446;6.854;2023-03-30T14:38:59;6.20;;;1.40;;
8694;SDS011;65580;49.446;6.854;2023-03-30T14:43:02;9.30;;;1.33;;
8694;SDS011;65580;49.446;6.854;2023-03-30T14:47:06;5.90;;;1.20;;
8694;SDS011;65580;49.446;6.854;2023-03-30T14:51:20;6.25;;;1.30;;
8694;SDS011;65580;49.446;6.854;2023-03-30T14:55:26;7.65;;;1.13;;
8694;SDS011;65580;49.446;6.854;2023-03-30T14:59:30;5.13;;;1.15;;
8694;SDS011;65580;49.446;6.854;2023-03-30T15:03:35;7.65;;;1.17;;
8694;SDS011;65580;49.446;6.854;2023-03-30T15:07:40;4.35;;;1.10;;
8694;SDS011;65580;49.446;6.854;2023-03-30T15:11:49;5.13;;;1.70;;
8694;SDS011;65580;49.446;6.854;2023-03-30T15:15:54;8.52;;;1.20;;
8694;SDS011;65580;49.446;6.854;2023-03-30T15:19:57;4.05;;;1.27;;
8694;SDS011;65580;49.446;6.854;2023-03-30T15:24:04;6.90;;;1.80;;
8694;SDS011;65580;49.446;6.854;2023-03-30T15:28:10;5.90;;;1.52;;
8694;SDS011;65580;49.446;6.854;2023-03-30T15:32:16;5.47;;;1.48;;
8694;SDS011;65580;49.446;6.854;2023-03-30T15:36:21;3.80;;;1.08;;
8694;SDS011;65580;49.446;6.854;2023-03-30T15:40:39;2.67;;;1.20;;
8694;SDS011;65580;49.446;6.854;2023-03-30T15:44:43;6.15;;;1.80;;
8694;SDS011;65580;49.446;6.854;2023-03-30T15:48:46;11.27;;;1.60;;
8694;SDS011;65580;49.446;6.854;2023-03-30T15:52:50;6.53;;;1.67;;
8694;SDS011;65580;49.446;6.854;2023-03-30T15:57:02;7.78;;;1.50;;
8694;SDS011;65580;49.446;6.854;2023-03-30T16:01:08;6.18;;;1.85;;
8694;SDS011;65580;49.446;6.854;2023-03-30T16:05:15;9.18;;;1.60;;
8694;SDS011;65580;49.446;6.854;2023-03-30T16:09:19;6.40;;;1.88;;
8694;SDS011;65580;49.446;6.854;2023-03-30T16:17:27;7.38;;;1.80;;
8694;SDS011;65580;49.446;6.854;2023-03-30T16:21:30;6.55;;;1.63;;
8694;SDS011;65580;49.446;6.854;2023-03-30T16:25:32;8.68;;;1.70;;
8694;SDS011;65580;49.446;6.854;2023-03-30T16:29:47;9.80;;;2.03;;
8694;SDS011;65580;49.446;6.854;2023-03-30T16:33:49;10.90;;;2.00;;
8694;SDS011;65580;49.446;6.854;2023-03-30T16:37:52;10.15;;;2.70;;
8694;SDS011;65580;49.446;6.854;2023-03-30T16:41:55;6.28;;;1.58;;
8694;SDS011;65580;49.446;6.854;2023-03-30T16:46:00;12.27;;;1.80;;
8694;SDS011;65580;49.446;6.854;2023-03-30T16:50:08;8.35;;;1.58;;
8694;SDS011;65580;49.446;6.854;2023-03-30T16:54:18;5.32;;;1.45;;
8694;SDS011;65580;49.446;6.854;2023-03-30T16:58:32;9.52;;;1.85;;
8694;SDS011;65580;49.446;6.854;2023-03-30T17:02:36;5.95;;;1.50;;
8694;SDS011;65580;49.446;6.854;2023-03-30T17:06:39;9.57;;;1.92;;
8694;SDS011;65580;49.446;6.854;2023-03-30T17:10:42;8.95;;;2.97;;
8694;SDS011;65580;49.446;6.854;2023-03-30T17:14:45;3.38;;;0.90;;
8694;SDS011;65580;49.446;6.854;2023-03-30T17:18:50;3.75;;;1.13;;
8694;SDS011;65580;49.446;6.854;2023-03-30T17:22:52;3.97;;;1.25;;
8694;SDS011;65580;49.446;6.854;2023-03-30T17:26:55;2.85;;;0.90;;
8694;SDS011;65580;49.446;6.854;2023-03-30T17:31:00;2.65;;;0.98;;
8694;SDS011;65580;49.446;6.854;2023-03-30T17:35:07;5.07;;;1.00;;
8694;SDS011;65580;49.446;6.854;2023-03-30T17:39:11;5.50;;;1.10;;
8694;SDS011;65580;49.446;6.854;2023-03-30T17:43:14;4.57;;;1.10;;
8694;SDS011;65580;49.446;6.854;2023-03-30T17:47:17;4.68;;;1.50;;
8694;SDS011;65580;49.446;6.854;2023-03-30T17:51:21;3.13;;;1.02;;
8694;SDS011;65580;49.446;6.854;2023-03-30T17:55:25;10.57;;;1.70;;
8694;SDS011;65580;49.446;6.854;2023-03-30T17:59:28;6.05;;;1.40;;
8694;SDS011;65580;49.446;6.854;2023-03-30T18:03:31;4.55;;;1.20;;
8694;SDS011;65580;49.446;6.854;2023-03-30T18:11:39;4.75;;;1.50;;
8694;SDS011;65580;49.446;6.854;2023-03-30T18:15:43;6.78;;;1.90;;
8694;SDS011;65580;49.446;6.854;2023-03-30T18:19:49;3.45;;;1.23;;
8694;SDS011;65580;49.446;6.854;2023-03-30T18:23:54;5.28;;;1.63;;
8694;SDS011;65580;49.446;6.854;2023-03-30T18:27:57;4.15;;;1.55;;
8694;SDS011;65580;49.446;6.854;2023-03-30T18:31:59;3.28;;;1.20;;
8694;SDS011;65580;49.446;6.854;2023-03-30T18:36:03;6.30;;;1.42;;
8694;SDS011;65580;49.446;6.854;2023-03-30T18:40:26;6.72;;;2.03;;
8694;SDS011;65580;49.446;6.854;2023-03-30T18:44:33;11.57;;;2.97;;
8694;SDS011;65580;49.446;6.854;2023-03-30T18:48:36;5.20;;;2.20;;
8694;SDS011;65580;49.446;6.854;2023-03-30T18:52:39;8.27;;;2.28;;
8694;SDS011;65580;49.446;6.854;2023-03-30T18:56:43;5.60;;;2.20;;
8694;SDS011;65580;49.446;6.854;2023-03-30T19:00:48;8.57;;;2.60;;
8694;SDS011;65580;49.446;6.854;2023-03-30T19:04:52;10.70;;;2.83;;
8694;SDS011;65580;49.446;6.854;2023-03-30T19:13:00;6.47;;;1.67;;
8694;SDS011;65580;49.446;6.854;2023-03-30T19:17:03;10.60;;;2.30;;
8694;SDS011;65580;49.446;6.854;2023-03-30T19:21:07;9.75;;;2.47;;
8694;SDS011;65580;49.446;6.854;2023-03-30T19:25:11;6.13;;;1.83;;
8694;SDS011;65580;49.446;6.854;2023-03-30T19:29:16;5.88;;;1.83;;
8694;SDS011;65580;49.446;6.854;2023-03-30T19:33:18;7.60;;;2.00;;
8694;SDS011;65580;49.446;6.854;2023-03-30T19:37:21;7.88;;;2.10;;
8694;SDS011;65580;49.446;6.854;2023-03-30T19:41:24;7.90;;;2.03;;
8694;SDS011;65580;49.446;6.854;2023-03-30T19:45:29;11.13;;;2.72;;
8694;SDS011;65580;49.446;6.854;2023-03-30T19:49:32;7.80;;;2.50;;
8694;SDS011;65580;49.446;6.854;2023-03-30T19:53:34;7.05;;;2.28;;
8694;SDS011;65580;49.446;6.854;2023-03-30T19:57:37;13.90;;;3.00;;
8694;SDS011;65580;49.446;6.854;2023-03-30T20:01:41;13.70;;;4.30;;
8694;SDS011;65580;49.446;6.854;2023-03-30T20:05:47;11.27;;;2.70;;
8694;SDS011;65580;49.446;6.854;2023-03-30T20:09:51;10.20;;;2.90;;
8694;SDS011;65580;49.446;6.854;2023-03-30T20:13:54;12.40;;;2.85;;
8694;SDS011;65580;49.446;6.854;2023-03-30T20:17:58;13.13;;;3.92;;
8694;SDS011;65580;49.446;6.854;2023-03-30T20:22:01;10.15;;;3.72;;
8694;SDS011;65580;49.446;6.854;2023-03-30T20:26:04;12.77;;;5.20;;
8694;SDS011;65580;49.446;6.854;2023-03-30T20:30:07;55.67;;;7.03;;
8694;SDS011;65580;49.446;6.854;2023-03-30T20:34:13;17.58;;;4.05;;
8694;SDS011;65580;49.446;6.854;2023-03-30T20:38:17;12.15;;;3.58;;
8694;SDS011;65580;49.446;6.854;2023-03-30T20:42:19;16.98;;;5.38;;
8694;SDS011;65580;49.446;6.854;2023-03-30T20:46:26;9.60;;;3.65;;
8694;SDS011;65580;49.446;6.854;2023-03-30T20:50:37;12.13;;;3.90;;
8694;SDS011;65580;49.446;6.854;2023-03-30T20:54:40;7.15;;;3.33;;
8694;SDS011;65580;49.446;6.854;2023-03-30T20:58:42;7.95;;;3.10;;
8694;SDS011;65580;49.446;6.854;2023-03-30T21:02:45;12.25;;;3.53;;
8694;SDS011;65580;49.446;6.854;2023-03-30T21:06:49;110.55;;;9.88;;
8694;SDS011;65580;49.446;6.854;2023-03-30T21:10:52;22.10;;;4.43;;
8694;SDS011;65580;49.446;6.854;2023-03-30T21:14:55;14.30;;;4.72;;
8694;SDS011;65580;49.446;6.854;2023-03-30T21:18:58;14.77;;;4.50;;
8694;SDS011;65580;49.446;6.854;2023-03-30T21:23:02;13.57;;;3.53;;
8694;SDS011;65580;49.446;6.854;2023-03-30T21:27:05;323.20;;;12.52;;
8694;SDS011;65580;49.446;6.854;2023-03-30T21:31:10;9.38;;;2.60;;
8694;SDS011;65580;49.446;6.854;2023-03-30T21:35:16;9.27;;;2.15;;
8694;SDS011;65580;49.446;6.854;2023-03-30T21:39:20;8.30;;;2.50;;
8694;SDS011;65580;49.446;6.854;2023-03-30T21:43:24;6.90;;;2.20;;
8694;SDS011;65580;49.446;6.854;2023-03-30T21:47:27;3.33;;;2.28;;
8694;SDS011;65580;49.446;6.854;2023-03-30T21:51:31;112.78;;;5.50;;
8694;SDS011;65580;49.446;6.854;2023-03-30T21:55:36;11.50;;;3.30;;
8694;SDS011;65580;49.446;6.854;2023-03-30T21:59:38;18.60;;;5.05;;
8694;SDS011;65580;49.446;6.854;2023-03-30T22:03:41;13.43;;;3.78;;
8694;SDS011;65580;49.446;6.854;2023-03-30T22:07:46;34.67;;;7.35;;
8694;SDS011;65580;49.446;6.854;2023-03-30T22:11:53;18.42;;;5.53;;
8694;SDS011;65580;49.446;6.854;2023-03-30T22:15:56;43.17;;;8.95;;
8694;SDS011;65580;49.446;6.854;2023-03-30T22:19:59;39.15;;;7.47;;
8694;SDS011;65580;49.446;6.854;2023-03-30T22:24:03;18.17;;;5.10;;
8694;SDS011;65580;49.446;6.854;2023-03-30T22:28:08;17.08;;;5.50;;
8694;SDS011;65580;49.446;6.854;2023-03-30T22:32:12;18.40;;;5.70;;
8694;SDS011;65580;49.446;6.854;2023-03-30T22:36:16;9.60;;;4.00;;
8694;SDS011;65580;49.446;6.854;2023-03-30T22:40:20;22.27;;;5.40;;
8694;SDS011;65580;49.446;6.854;2023-03-30T22:44:24;13.00;;;4.07;;
8694;SDS011;65580;49.446;6.854;2023-03-30T22:48:27;17.50;;;6.53;;
8694;SDS011;65580;49.446;6.854;2023-03-30T22:52:30;39.05;;;9.80;;
8694;SDS011;65580;49.446;6.854;2023-03-30T22:56:33;16.13;;;7.05;;
8694;SDS011;65580;49.446;6.854;2023-03-30T23:00:37;12.20;;;5.20;;
8694;SDS011;65580;49.446;6.854;2023-03-30T23:04:40;14.93;;;6.78;;
8694;SDS011;65580;49.446;6.854;2023-03-30T23:08:44;14.65;;;5.68;;
8694;SDS011;65580;49.446;6.854;2023-03-30T23:12:48;12.75;;;5.22;;
8694;SDS011;65580;49.446;6.854;2023-03-30T23:16:53;16.83;;;6.50;;
8694;SDS011;65580;49.446;6.854;2023-03-30T23:20:57;34.33;;;9.57;;
8694;SDS011;65580;49.446;6.854;2023-03-30T23:25:07;16.27;;;6.40;;
8694;SDS011;65580;49.446;6.854;2023-03-30T23:29:10;17.50;;;7.13;;
8694;SDS011;65580;49.446;6.854;2023-03-30T23:33:14;18.45;;;7.47;;
8694;SDS011;65580;49.446;6.854;2023-03-30T23:37:17;39.88;;;10.70;;
8694;SDS011;65580;49.446;6.854;2023-03-30T23:41:22;15.27;;;3.72;;
8694;SDS011;65580;49.446;6.854;2023-03-30T23:45:24;14.02;;;2.53;;
8694;SDS011;65580;49.446;6.854;2023-03-30T23:49:28;14.90;;;1.90;;
8694;SDS011;65580;49.446;6.854;2023-03-30T23:53:31;13.95;;;2.40;;
8694;SDS011;65580;49.446;6.854;2023-03-30T23:57:34;10.30;;;2.17;;
